sensor_id;sensor_type;location;lat;lon;timestamp;P1;durP1;ratioP1;P2;durP2;ratioP2
34144;SDS011;69555;53.014;8.886;2023-07-28T00:01:34;2.55;;;2.17;;
34144;SDS011;69555;53.014;8.886;2023-07-28T00:03:59;2.83;;;2.63;;
34144;SDS011;69555;53.014;8.886;2023-07-28T00:06:24;3.22;;;2.17;;
34144;SDS011;69555;53.014;8.886;2023-07-28T00:08:50;5.18;;;2.40;;
34144;SDS011;69555;53.014;8.886;2023-07-28T00:11:15;5.15;;;2.33;;
34144;SDS011;69555;53.014;8.886;2023-07-28T00:13:41;4.07;;;2.35;;
34144;SDS011;69555;53.014;8.886;2023-07-28T00:16:08;3.70;;;2.30;;
34144;SDS011;69555;53.014;8.886;2023-07-28T00:18:34;4.85;;;2.47;;
34144;SDS011;69555;53.014;8.886;2023-07-28T00:21:00;4.72;;;2.47;;
34144;SDS011;69555;53.014;8.886;2023-07-28T00:23:26;5.05;;;2.60;;
34144;SDS011;69555;53.014;8.886;2023-07-28T00:25:51;4.20;;;2.47;;
34144;SDS011;69555;53.014;8.886;2023-07-28T00:28:17;3.40;;;2.83;;
34144;SDS011;69555;53.014;8.886;2023-07-28T00:30:42;4.97;;;2.92;;
34144;SDS011;69555;53.014;8.886;2023-07-28T00:33:07;5.30;;;3.38;;
34144;SDS011;69555;53.014;8.886;2023-07-28T00:35:33;6.10;;;3.28;;
34144;SDS011;69555;53.014;8.886;2023-07-28T00:37:58;5.45;;;2.85;;
34144;SDS011;69555;53.014;8.886;2023-07-28T00:40:24;4.80;;;3.55;;
34144;SDS011;69555;53.014;8.886;2023-07-28T00:42:49;9.52;;;3.40;;
34144;SDS011;69555;53.014;8.886;2023-07-28T00:45:15;4.07;;;3.08;;
34144;SDS011;69555;53.014;8.886;2023-07-28T00:47:40;4.00;;;3.22;;
34144;SDS011;69555;53.014;8.886;2023-07-28T00:50:06;7.43;;;3.53;;
34144;SDS011;69555;53.014;8.886;2023-07-28T00:52:37;7.88;;;3.95;;
34144;SDS011;69555;53.014;8.886;2023-07-28T00:55:02;6.38;;;4.60;;
34144;SDS011;69555;53.014;8.886;2023-07-28T00:57:28;7.35;;;4.32;;
34144;SDS011;69555;53.014;8.886;2023-07-28T00:59:53;9.23;;;4.40;;
34144;SDS011;69555;53.014;8.886;2023-07-28T01:02:19;8.23;;;4.80;;
34144;SDS011;69555;53.014;8.886;2023-07-28T01:04:46;7.53;;;4.78;;
34144;SDS011;69555;53.014;8.886;2023-07-28T01:07:14;12.63;;;6.57;;
34144;SDS011;69555;53.014;8.886;2023-07-28T01:12:28;9.45;;;5.00;;
34144;SDS011;69555;53.014;8.886;2023-07-28T01:14:53;7.85;;;5.68;;
34144;SDS011;69555;53.014;8.886;2023-07-28T01:17:19;11.75;;;6.15;;
34144;SDS011;69555;53.014;8.886;2023-07-28T01:19:44;10.73;;;5.43;;
34144;SDS011;69555;53.014;8.886;2023-07-28T01:27:46;6.15;;;5.15;;
34144;SDS011;69555;53.014;8.886;2023-07-28T01:30:13;8.57;;;6.25;;
34144;SDS011;69555;53.014;8.886;2023-07-28T01:32:39;7.22;;;6.15;;
34144;SDS011;69555;53.014;8.886;2023-07-28T01:35:04;9.38;;;7.22;;
34144;SDS011;69555;53.014;8.886;2023-07-28T01:37:30;8.00;;;5.40;;
34144;SDS011;69555;53.014;8.886;2023-07-28T01:39:56;6.82;;;5.63;;
34144;SDS011;69555;53.014;8.886;2023-07-28T01:42:22;9.20;;;5.63;;
34144;SDS011;69555;53.014;8.886;2023-07-28T01:44:48;9.68;;;5.07;;
34144;SDS011;69555;53.014;8.886;2023-07-28T01:47:13;5.97;;;4.28;;
34144;SDS011;69555;53.014;8.886;2023-07-28T01:49:39;6.00;;;3.58;;
34144;SDS011;69555;53.014;8.886;2023-07-28T01:52:04;5.40;;;3.20;;
34144;SDS011;69555;53.014;8.886;2023-07-28T01:54:30;4.35;;;3.38;;
34144;SDS011;69555;53.014;8.886;2023-07-28T01:56:55;6.32;;;3.20;;
34144;SDS011;69555;53.014;8.886;2023-07-28T01:59:21;6.82;;;3.75;;
34144;SDS011;69555;53.014;8.886;2023-07-28T02:01:46;8.32;;;3.67;;
34144;SDS011;69555;53.014;8.886;2023-07-28T02:04:12;4.53;;;3.25;;
34144;SDS011;69555;53.014;8.886;2023-07-28T02:06:37;6.65;;;3.80;;
34144;SDS011;69555;53.014;8.886;2023-07-28T02:09:03;6.57;;;3.55;;
34144;SDS011;69555;53.014;8.886;2023-07-28T02:11:28;6.22;;;2.65;;
34144;SDS011;69555;53.014;8.886;2023-07-28T02:13:54;3.90;;;3.25;;
34144;SDS011;69555;53.014;8.886;2023-07-28T02:16:19;7.70;;;2.47;;
34144;SDS011;69555;53.014;8.886;2023-07-28T02:18:45;3.83;;;2.03;;
34144;SDS011;69555;53.014;8.886;2023-07-28T02:21:10;2.70;;;2.33;;
34144;SDS011;69555;53.014;8.886;2023-07-28T02:23:36;5.55;;;3.35;;
34144;SDS011;69555;53.014;8.886;2023-07-28T02:26:01;2.85;;;2.20;;
34144;SDS011;69555;53.014;8.886;2023-07-28T02:28:26;4.97;;;2.47;;
34144;SDS011;69555;53.014;8.886;2023-07-28T02:30:52;7.88;;;3.00;;
34144;SDS011;69555;53.014;8.886;2023-07-28T02:33:17;2.80;;;2.53;;
34144;SDS011;69555;53.014;8.886;2023-07-28T02:35:42;5.22;;;2.13;;
34144;SDS011;69555;53.014;8.886;2023-07-28T02:38:08;4.35;;;2.25;;
34144;SDS011;69555;53.014;8.886;2023-07-28T02:40:33;3.60;;;2.35;;
34144;SDS011;69555;53.014;8.886;2023-07-28T02:42:59;3.17;;;2.17;;
34144;SDS011;69555;53.014;8.886;2023-07-28T02:45:24;5.78;;;2.90;;
34144;SDS011;69555;53.014;8.886;2023-07-28T02:47:50;5.45;;;3.20;;
34144;SDS011;69555;53.014;8.886;2023-07-28T02:50:16;5.65;;;3.53;;
34144;SDS011;69555;53.014;8.886;2023-07-28T02:52:41;6.07;;;5.10;;
34144;SDS011;69555;53.014;8.886;2023-07-28T02:55:07;12.60;;;4.70;;
34144;SDS011;69555;53.014;8.886;2023-07-28T02:57:33;8.00;;;4.57;;
34144;SDS011;69555;53.014;8.886;2023-07-28T02:59:58;8.20;;;5.05;;
34144;SDS011;69555;53.014;8.886;2023-07-28T03:02:24;8.15;;;5.15;;
34144;SDS011;69555;53.014;8.886;2023-07-28T03:04:49;8.10;;;5.60;;
34144;SDS011;69555;53.014;8.886;2023-07-28T03:07:15;7.93;;;5.85;;
34144;SDS011;69555;53.014;8.886;2023-07-28T03:09:40;6.88;;;5.43;;
34144;SDS011;69555;53.014;8.886;2023-07-28T03:12:06;9.70;;;5.93;;
34144;SDS011;69555;53.014;8.886;2023-07-28T03:14:32;6.80;;;5.28;;
34144;SDS011;69555;53.014;8.886;2023-07-28T03:16:57;9.65;;;5.22;;
34144;SDS011;69555;53.014;8.886;2023-07-28T03:19:23;7.05;;;5.53;;
34144;SDS011;69555;53.014;8.886;2023-07-28T03:21:48;8.18;;;5.03;;
34144;SDS011;69555;53.014;8.886;2023-07-28T03:24:13;6.80;;;5.47;;
34144;SDS011;69555;53.014;8.886;2023-07-28T03:26:39;7.50;;;6.03;;
34144;SDS011;69555;53.014;8.886;2023-07-28T03:29:04;7.18;;;5.75;;
34144;SDS011;69555;53.014;8.886;2023-07-28T03:31:30;10.10;;;5.45;;
34144;SDS011;69555;53.014;8.886;2023-07-28T03:33:55;9.00;;;5.43;;
34144;SDS011;69555;53.014;8.886;2023-07-28T03:36:20;7.80;;;5.88;;
34144;SDS011;69555;53.014;8.886;2023-07-28T03:38:46;14.95;;;6.53;;
34144;SDS011;69555;53.014;8.886;2023-07-28T03:41:12;9.35;;;5.88;;
34144;SDS011;69555;53.014;8.886;2023-07-28T03:43:37;11.68;;;6.50;;
34144;SDS011;69555;53.014;8.886;2023-07-28T03:46:03;11.85;;;6.10;;
34144;SDS011;69555;53.014;8.886;2023-07-28T03:48:28;8.18;;;6.00;;
34144;SDS011;69555;53.014;8.886;2023-07-28T03:50:54;9.73;;;7.15;;
34144;SDS011;69555;53.014;8.886;2023-07-28T03:53:19;12.05;;;7.22;;
34144;SDS011;69555;53.014;8.886;2023-07-28T03:55:45;11.30;;;8.18;;
34144;SDS011;69555;53.014;8.886;2023-07-28T03:58:10;17.65;;;9.60;;
34144;SDS011;69555;53.014;8.886;2023-07-28T04:00:35;14.32;;;10.93;;
34144;SDS011;69555;53.014;8.886;2023-07-28T04:03:01;15.75;;;11.10;;
34144;SDS011;69555;53.014;8.886;2023-07-28T04:05:26;18.48;;;12.32;;
34144;SDS011;69555;53.014;8.886;2023-07-28T04:07:52;20.75;;;12.65;;
34144;SDS011;69555;53.014;8.886;2023-07-28T04:10:17;20.10;;;12.52;;
34144;SDS011;69555;53.014;8.886;2023-07-28T04:12:42;25.05;;;15.07;;
34144;SDS011;69555;53.014;8.886;2023-07-28T04:15:08;23.02;;;14.00;;
34144;SDS011;69555;53.014;8.886;2023-07-28T04:17:34;21.77;;;13.48;;
34144;SDS011;69555;53.014;8.886;2023-07-28T04:19:59;25.75;;;15.02;;
34144;SDS011;69555;53.014;8.886;2023-07-28T04:22:24;23.73;;;14.80;;
34144;SDS011;69555;53.014;8.886;2023-07-28T04:24:50;29.08;;;14.77;;
34144;SDS011;69555;53.014;8.886;2023-07-28T04:27:15;25.30;;;15.93;;
34144;SDS011;69555;53.014;8.886;2023-07-28T04:29:41;24.70;;;14.10;;
34144;SDS011;69555;53.014;8.886;2023-07-28T04:32:06;25.98;;;14.02;;
34144;SDS011;69555;53.014;8.886;2023-07-28T04:34:35;30.10;;;15.02;;
34144;SDS011;69555;53.014;8.886;2023-07-28T04:37:01;21.83;;;13.45;;
34144;SDS011;69555;53.014;8.886;2023-07-28T04:39:26;25.95;;;14.02;;
34144;SDS011;69555;53.014;8.886;2023-07-28T04:41:52;21.20;;;14.05;;
34144;SDS011;69555;53.014;8.886;2023-07-28T04:44:18;22.65;;;14.48;;
34144;SDS011;69555;53.014;8.886;2023-07-28T04:46:44;27.27;;;15.55;;
34144;SDS011;69555;53.014;8.886;2023-07-28T04:49:12;26.48;;;15.73;;
34144;SDS011;69555;53.014;8.886;2023-07-28T04:51:38;27.38;;;14.93;;
34144;SDS011;69555;53.014;8.886;2023-07-28T04:54:03;28.25;;;15.70;;
34144;SDS011;69555;53.014;8.886;2023-07-28T04:56:28;29.10;;;16.73;;
34144;SDS011;69555;53.014;8.886;2023-07-28T04:58:54;31.75;;;17.98;;
34144;SDS011;69555;53.014;8.886;2023-07-28T05:01:19;34.20;;;17.50;;
34144;SDS011;69555;53.014;8.886;2023-07-28T05:03:44;31.90;;;18.92;;
34144;SDS011;69555;53.014;8.886;2023-07-28T05:06:10;34.30;;;18.95;;
34144;SDS011;69555;53.014;8.886;2023-07-28T05:08:35;42.85;;;20.65;;
34144;SDS011;69555;53.014;8.886;2023-07-28T05:11:01;37.70;;;19.75;;
34144;SDS011;69555;53.014;8.886;2023-07-28T05:13:26;36.30;;;20.23;;
34144;SDS011;69555;53.014;8.886;2023-07-28T05:15:52;39.40;;;22.02;;
34144;SDS011;69555;53.014;8.886;2023-07-28T05:18:17;32.50;;;20.77;;
34144;SDS011;69555;53.014;8.886;2023-07-28T05:20:42;39.17;;;21.88;;
34144;SDS011;69555;53.014;8.886;2023-07-28T05:23:08;37.85;;;20.88;;
34144;SDS011;69555;53.014;8.886;2023-07-28T05:25:33;35.58;;;20.23;;
34144;SDS011;69555;53.014;8.886;2023-07-28T05:27:59;39.58;;;20.45;;
34144;SDS011;69555;53.014;8.886;2023-07-28T05:30:24;40.50;;;20.17;;
34144;SDS011;69555;53.014;8.886;2023-07-28T05:32:50;37.28;;;21.17;;
34144;SDS011;69555;53.014;8.886;2023-07-28T05:35:15;39.88;;;20.70;;
34144;SDS011;69555;53.014;8.886;2023-07-28T05:37:41;40.58;;;20.98;;
34144;SDS011;69555;53.014;8.886;2023-07-28T05:40:06;36.78;;;19.30;;
34144;SDS011;69555;53.014;8.886;2023-07-28T05:42:32;44.17;;;20.15;;
34144;SDS011;69555;53.014;8.886;2023-07-28T05:44:58;37.53;;;19.15;;
34144;SDS011;69555;53.014;8.886;2023-07-28T05:47:24;36.17;;;20.63;;
34144;SDS011;69555;53.014;8.886;2023-07-28T05:49:49;42.15;;;21.08;;
34144;SDS011;69555;53.014;8.886;2023-07-28T05:52:15;35.75;;;20.20;;
34144;SDS011;69555;53.014;8.886;2023-07-28T05:54:41;47.15;;;22.15;;
34144;SDS011;69555;53.014;8.886;2023-07-28T05:57:06;38.13;;;21.27;;
34144;SDS011;69555;53.014;8.886;2023-07-28T05:59:31;37.60;;;20.02;;
34144;SDS011;69555;53.014;8.886;2023-07-28T06:01:57;43.67;;;20.95;;
34144;SDS011;69555;53.014;8.886;2023-07-28T06:04:22;40.25;;;20.55;;
34144;SDS011;69555;53.014;8.886;2023-07-28T06:06:47;36.33;;;19.98;;
34144;SDS011;69555;53.014;8.886;2023-07-28T06:09:13;34.22;;;19.48;;
34144;SDS011;69555;53.014;8.886;2023-07-28T06:11:39;39.13;;;20.55;;
34144;SDS011;69555;53.014;8.886;2023-07-28T06:14:04;36.55;;;19.45;;
34144;SDS011;69555;53.014;8.886;2023-07-28T06:16:30;33.17;;;20.77;;
34144;SDS011;69555;53.014;8.886;2023-07-28T06:18:56;38.85;;;19.65;;
34144;SDS011;69555;53.014;8.886;2023-07-28T06:21:21;33.97;;;20.00;;
34144;SDS011;69555;53.014;8.886;2023-07-28T06:23:46;36.05;;;19.25;;
34144;SDS011;69555;53.014;8.886;2023-07-28T06:26:12;29.90;;;18.85;;
34144;SDS011;69555;53.014;8.886;2023-07-28T06:28:37;33.22;;;18.10;;
34144;SDS011;69555;53.014;8.886;2023-07-28T06:31:03;36.90;;;19.15;;
34144;SDS011;69555;53.014;8.886;2023-07-28T06:33:28;27.80;;;17.92;;
34144;SDS011;69555;53.014;8.886;2023-07-28T06:35:54;27.60;;;16.98;;
34144;SDS011;69555;53.014;8.886;2023-07-28T06:38:19;26.63;;;17.83;;
34144;SDS011;69555;53.014;8.886;2023-07-28T06:40:45;26.50;;;17.17;;
34144;SDS011;69555;53.014;8.886;2023-07-28T06:43:11;27.17;;;17.58;;
34144;SDS011;69555;53.014;8.886;2023-07-28T06:45:36;31.77;;;18.92;;
34144;SDS011;69555;53.014;8.886;2023-07-28T06:48:01;25.63;;;18.83;;
34144;SDS011;69555;53.014;8.886;2023-07-28T06:50:27;32.47;;;18.88;;
34144;SDS011;69555;53.014;8.886;2023-07-28T06:52:52;34.92;;;19.13;;
34144;SDS011;69555;53.014;8.886;2023-07-28T06:55:18;40.63;;;20.33;;
34144;SDS011;69555;53.014;8.886;2023-07-28T06:57:46;37.60;;;21.00;;
34144;SDS011;69555;53.014;8.886;2023-07-28T07:00:11;33.13;;;21.25;;
34144;SDS011;69555;53.014;8.886;2023-07-28T07:02:37;33.15;;;20.55;;
34144;SDS011;69555;53.014;8.886;2023-07-28T07:05:03;38.20;;;20.95;;
34144;SDS011;69555;53.014;8.886;2023-07-28T07:07:28;31.73;;;20.98;;
34144;SDS011;69555;53.014;8.886;2023-07-28T07:09:54;35.08;;;21.95;;
34144;SDS011;69555;53.014;8.886;2023-07-28T07:12:20;31.20;;;20.45;;
34144;SDS011;69555;53.014;8.886;2023-07-28T07:14:46;33.40;;;20.25;;
34144;SDS011;69555;53.014;8.886;2023-07-28T07:17:11;32.25;;;19.85;;
34144;SDS011;69555;53.014;8.886;2023-07-28T07:19:37;32.38;;;20.92;;
34144;SDS011;69555;53.014;8.886;2023-07-28T07:22:03;30.83;;;18.85;;
34144;SDS011;69555;53.014;8.886;2023-07-28T07:24:31;32.15;;;19.23;;
34144;SDS011;69555;53.014;8.886;2023-07-28T07:26:58;24.70;;;17.77;;
34144;SDS011;69555;53.014;8.886;2023-07-28T07:29:24;24.85;;;17.17;;
34144;SDS011;69555;53.014;8.886;2023-07-28T07:31:51;28.73;;;17.20;;
34144;SDS011;69555;53.014;8.886;2023-07-28T07:34:26;27.80;;;16.55;;
34144;SDS011;69555;53.014;8.886;2023-07-28T07:36:52;28.25;;;18.45;;
34144;SDS011;69555;53.014;8.886;2023-07-28T07:41:47;29.55;;;18.85;;
34144;SDS011;69555;53.014;8.886;2023-07-28T07:44:14;31.95;;;18.77;;
34144;SDS011;69555;53.014;8.886;2023-07-28T07:46:41;35.20;;;19.38;;
34144;SDS011;69555;53.014;8.886;2023-07-28T07:49:07;34.85;;;18.38;;
34144;SDS011;69555;53.014;8.886;2023-07-28T07:51:34;31.38;;;18.60;;
34144;SDS011;69555;53.014;8.886;2023-07-28T07:54:01;29.33;;;20.88;;
34144;SDS011;69555;53.014;8.886;2023-07-28T07:56:26;32.55;;;18.85;;
34144;SDS011;69555;53.014;8.886;2023-07-28T07:58:53;32.50;;;20.35;;
34144;SDS011;69555;53.014;8.886;2023-07-28T08:01:20;30.05;;;18.80;;
34144;SDS011;69555;53.014;8.886;2023-07-28T08:03:47;35.38;;;21.67;;
34144;SDS011;69555;53.014;8.886;2023-07-28T08:06:14;31.20;;;19.35;;
34144;SDS011;69555;53.014;8.886;2023-07-28T08:08:40;35.40;;;19.35;;
34144;SDS011;69555;53.014;8.886;2023-07-28T08:11:07;27.02;;;18.13;;
34144;SDS011;69555;53.014;8.886;2023-07-28T08:13:34;36.38;;;19.73;;
34144;SDS011;69555;53.014;8.886;2023-07-28T08:16:01;28.67;;;17.77;;
34144;SDS011;69555;53.014;8.886;2023-07-28T08:18:27;26.23;;;18.17;;
34144;SDS011;69555;53.014;8.886;2023-07-28T08:20:54;25.02;;;18.15;;
34144;SDS011;69555;53.014;8.886;2023-07-28T08:23:20;26.88;;;18.35;;
34144;SDS011;69555;53.014;8.886;2023-07-28T08:25:47;29.48;;;18.92;;
34144;SDS011;69555;53.014;8.886;2023-07-28T08:28:14;35.00;;;19.13;;
34144;SDS011;69555;53.014;8.886;2023-07-28T08:30:41;23.98;;;18.85;;
34144;SDS011;69555;53.014;8.886;2023-07-28T08:33:07;32.88;;;19.65;;
34144;SDS011;69555;53.014;8.886;2023-07-28T08:35:34;30.35;;;20.40;;
34144;SDS011;69555;53.014;8.886;2023-07-28T08:38:01;32.72;;;20.52;;
34144;SDS011;69555;53.014;8.886;2023-07-28T08:40:26;31.60;;;22.40;;
34144;SDS011;69555;53.014;8.886;2023-07-28T08:42:53;30.65;;;20.58;;
34144;SDS011;69555;53.014;8.886;2023-07-28T08:45:18;35.83;;;20.55;;
34144;SDS011;69555;53.014;8.886;2023-07-28T08:47:44;32.55;;;20.15;;
34144;SDS011;69555;53.014;8.886;2023-07-28T08:50:10;30.73;;;18.15;;
34144;SDS011;69555;53.014;8.886;2023-07-28T08:52:36;36.10;;;20.15;;
34144;SDS011;69555;53.014;8.886;2023-07-28T08:55:01;30.52;;;18.70;;
34144;SDS011;69555;53.014;8.886;2023-07-28T08:57:27;27.67;;;18.50;;
34144;SDS011;69555;53.014;8.886;2023-07-28T08:59:53;32.67;;;19.50;;
34144;SDS011;69555;53.014;8.886;2023-07-28T09:02:19;26.48;;;16.77;;
34144;SDS011;69555;53.014;8.886;2023-07-28T09:04:45;25.23;;;17.33;;
34144;SDS011;69555;53.014;8.886;2023-07-28T09:07:12;25.92;;;16.88;;
34144;SDS011;69555;53.014;8.886;2023-07-28T09:09:38;21.02;;;15.38;;
34144;SDS011;69555;53.014;8.886;2023-07-28T09:12:03;20.95;;;14.50;;
34144;SDS011;69555;53.014;8.886;2023-07-28T09:14:29;24.92;;;15.73;;
34144;SDS011;69555;53.014;8.886;2023-07-28T09:16:55;19.73;;;15.77;;
34144;SDS011;69555;53.014;8.886;2023-07-28T09:19:21;28.60;;;16.05;;
34144;SDS011;69555;53.014;8.886;2023-07-28T09:21:56;26.60;;;15.95;;
34144;SDS011;69555;53.014;8.886;2023-07-28T09:24:28;21.20;;;15.20;;
34144;SDS011;69555;53.014;8.886;2023-07-28T09:26:56;19.48;;;14.88;;
34144;SDS011;69555;53.014;8.886;2023-07-28T09:29:23;19.73;;;13.48;;
34144;SDS011;69555;53.014;8.886;2023-07-28T09:31:49;19.73;;;14.02;;
34144;SDS011;69555;53.014;8.886;2023-07-28T09:34:25;17.77;;;13.80;;
34144;SDS011;69555;53.014;8.886;2023-07-28T09:36:54;18.85;;;12.60;;
34144;SDS011;69555;53.014;8.886;2023-07-28T09:39:23;20.48;;;12.98;;
34144;SDS011;69555;53.014;8.886;2023-07-28T09:41:49;17.40;;;12.57;;
34144;SDS011;69555;53.014;8.886;2023-07-28T09:44:15;25.63;;;12.02;;
34144;SDS011;69555;53.014;8.886;2023-07-28T09:46:51;16.45;;;10.60;;
34144;SDS011;69555;53.014;8.886;2023-07-28T09:49:20;13.25;;;9.80;;
34144;SDS011;69555;53.014;8.886;2023-07-28T09:51:49;14.13;;;11.73;;
34144;SDS011;69555;53.014;8.886;2023-07-28T09:54:28;12.82;;;11.27;;
34144;SDS011;69555;53.014;8.886;2023-07-28T09:57:01;17.20;;;10.90;;
34144;SDS011;69555;53.014;8.886;2023-07-28T09:59:38;16.52;;;11.35;;
34144;SDS011;69555;53.014;8.886;2023-07-28T10:02:06;15.85;;;9.88;;
34144;SDS011;69555;53.014;8.886;2023-07-28T10:04:34;35.15;;;11.70;;
34144;SDS011;69555;53.014;8.886;2023-07-28T10:07:01;15.95;;;9.80;;
34144;SDS011;69555;53.014;8.886;2023-07-28T10:09:31;17.20;;;9.85;;
34144;SDS011;69555;53.014;8.886;2023-07-28T10:12:00;16.52;;;10.30;;
34144;SDS011;69555;53.014;8.886;2023-07-28T10:14:26;14.63;;;11.50;;
34144;SDS011;69555;53.014;8.886;2023-07-28T10:17:03;13.98;;;10.85;;
34144;SDS011;69555;53.014;8.886;2023-07-28T10:19:34;17.27;;;12.38;;
34144;SDS011;69555;53.014;8.886;2023-07-28T10:22:08;11.73;;;9.20;;
34144;SDS011;69555;53.014;8.886;2023-07-28T10:24:51;13.95;;;8.10;;
34144;SDS011;69555;53.014;8.886;2023-07-28T10:30:13;11.13;;;8.68;;
34144;SDS011;69555;53.014;8.886;2023-07-28T10:32:48;10.68;;;8.18;;
34144;SDS011;69555;53.014;8.886;2023-07-28T10:35:26;14.85;;;8.43;;
34144;SDS011;69555;53.014;8.886;2023-07-28T10:37:53;10.55;;;7.38;;
34144;SDS011;69555;53.014;8.886;2023-07-28T10:42:51;15.95;;;9.18;;
34144;SDS011;69555;53.014;8.886;2023-07-28T10:45:18;9.43;;;7.95;;
34144;SDS011;69555;53.014;8.886;2023-07-28T10:47:45;16.23;;;9.77;;
34144;SDS011;69555;53.014;8.886;2023-07-28T10:50:13;13.77;;;9.88;;
34144;SDS011;69555;53.014;8.886;2023-07-28T10:52:41;14.05;;;10.23;;
34144;SDS011;69555;53.014;8.886;2023-07-28T10:55:20;13.77;;;10.45;;
34144;SDS011;69555;53.014;8.886;2023-07-28T10:57:51;10.90;;;9.75;;
34144;SDS011;69555;53.014;8.886;2023-07-28T11:00:20;13.20;;;9.45;;
34144;SDS011;69555;53.014;8.886;2023-07-28T11:02:50;13.48;;;9.73;;
34144;SDS011;69555;53.014;8.886;2023-07-28T11:05:24;14.80;;;8.93;;
34144;SDS011;69555;53.014;8.886;2023-07-28T11:08:02;11.65;;;7.63;;
34144;SDS011;69555;53.014;8.886;2023-07-28T11:10:29;9.75;;;6.55;;
34144;SDS011;69555;53.014;8.886;2023-07-28T11:12:57;9.82;;;5.55;;
34144;SDS011;69555;53.014;8.886;2023-07-28T11:15:25;11.15;;;6.53;;
34144;SDS011;69555;53.014;8.886;2023-07-28T11:17:52;9.23;;;5.72;;
34144;SDS011;69555;53.014;8.886;2023-07-28T11:20:24;6.47;;;4.97;;
34144;SDS011;69555;53.014;8.886;2023-07-28T11:23:01;9.35;;;4.88;;
34144;SDS011;69555;53.014;8.886;2023-07-28T11:25:33;7.70;;;4.85;;
34144;SDS011;69555;53.014;8.886;2023-07-28T11:28:05;6.85;;;3.33;;
34144;SDS011;69555;53.014;8.886;2023-07-28T11:30:32;7.57;;;3.40;;
34144;SDS011;69555;53.014;8.886;2023-07-28T11:33:03;7.05;;;3.05;;
34144;SDS011;69555;53.014;8.886;2023-07-28T11:35:30;6.68;;;2.80;;
34144;SDS011;69555;53.014;8.886;2023-07-28T11:37:57;6.82;;;3.20;;
34144;SDS011;69555;53.014;8.886;2023-07-28T11:40:24;3.72;;;2.42;;
34144;SDS011;69555;53.014;8.886;2023-07-28T11:42:54;5.22;;;2.95;;
34144;SDS011;69555;53.014;8.886;2023-07-28T11:45:21;4.53;;;2.72;;
34144;SDS011;69555;53.014;8.886;2023-07-28T11:47:57;6.38;;;3.00;;
34144;SDS011;69555;53.014;8.886;2023-07-28T11:50:34;4.50;;;2.63;;
34144;SDS011;69555;53.014;8.886;2023-07-28T11:53:03;9.55;;;3.67;;
34144;SDS011;69555;53.014;8.886;2023-07-28T11:55:33;9.07;;;3.55;;
34144;SDS011;69555;53.014;8.886;2023-07-28T11:58:01;4.35;;;3.95;;
34144;SDS011;69555;53.014;8.886;2023-07-28T12:00:36;4.40;;;3.55;;
34144;SDS011;69555;53.014;8.886;2023-07-28T12:03:05;4.10;;;3.70;;
34144;SDS011;69555;53.014;8.886;2023-07-28T12:05:36;6.15;;;3.17;;
34144;SDS011;69555;53.014;8.886;2023-07-28T12:08:04;6.32;;;3.28;;
34144;SDS011;69555;53.014;8.886;2023-07-28T12:10:31;6.30;;;4.10;;
34144;SDS011;69555;53.014;8.886;2023-07-28T12:13:03;5.32;;;3.05;;
34144;SDS011;69555;53.014;8.886;2023-07-28T12:15:34;4.75;;;2.90;;
34144;SDS011;69555;53.014;8.886;2023-07-28T12:18:13;3.53;;;2.45;;
34144;SDS011;69555;53.014;8.886;2023-07-28T12:20:43;5.25;;;2.60;;
34144;SDS011;69555;53.014;8.886;2023-07-28T12:23:14;4.63;;;2.67;;
34144;SDS011;69555;53.014;8.886;2023-07-28T12:25:42;4.68;;;2.60;;
34144;SDS011;69555;53.014;8.886;2023-07-28T12:28:10;4.90;;;2.33;;
34144;SDS011;69555;53.014;8.886;2023-07-28T12:30:37;6.88;;;2.15;;
34144;SDS011;69555;53.014;8.886;2023-07-28T12:33:05;5.82;;;2.63;;
34144;SDS011;69555;53.014;8.886;2023-07-28T12:35:32;3.33;;;2.35;;
34144;SDS011;69555;53.014;8.886;2023-07-28T12:38:04;6.90;;;2.13;;
34144;SDS011;69555;53.014;8.886;2023-07-28T12:40:30;3.33;;;2.00;;
34144;SDS011;69555;53.014;8.886;2023-07-28T12:42:58;6.65;;;1.92;;
34144;SDS011;69555;53.014;8.886;2023-07-28T12:45:26;3.10;;;2.03;;
34144;SDS011;69555;53.014;8.886;2023-07-28T12:47:53;4.53;;;2.03;;
34144;SDS011;69555;53.014;8.886;2023-07-28T12:50:21;5.95;;;2.50;;
34144;SDS011;69555;53.014;8.886;2023-07-28T12:52:49;6.38;;;2.50;;
34144;SDS011;69555;53.014;8.886;2023-07-28T12:55:17;4.82;;;2.25;;
34144;SDS011;69555;53.014;8.886;2023-07-28T12:57:44;3.55;;;3.00;;
34144;SDS011;69555;53.014;8.886;2023-07-28T13:00:14;5.13;;;2.40;;
34144;SDS011;69555;53.014;8.886;2023-07-28T13:02:44;2.55;;;2.17;;
34144;SDS011;69555;53.014;8.886;2023-07-28T13:05:12;2.90;;;2.13;;
34144;SDS011;69555;53.014;8.886;2023-07-28T13:07:40;4.50;;;2.38;;
34144;SDS011;69555;53.014;8.886;2023-07-28T13:10:08;7.70;;;3.47;;
34144;SDS011;69555;53.014;8.886;2023-07-28T13:12:37;8.43;;;2.92;;
34144;SDS011;69555;53.014;8.886;2023-07-28T13:15:04;8.02;;;2.58;;
34144;SDS011;69555;53.014;8.886;2023-07-28T13:17:32;8.70;;;3.15;;
34144;SDS011;69555;53.014;8.886;2023-07-28T13:19:58;5.47;;;3.22;;
34144;SDS011;69555;53.014;8.886;2023-07-28T13:22:25;4.10;;;3.15;;
34144;SDS011;69555;53.014;8.886;2023-07-28T13:24:53;3.80;;;3.33;;
34144;SDS011;69555;53.014;8.886;2023-07-28T13:27:20;10.90;;;3.58;;
34144;SDS011;69555;53.014;8.886;2023-07-28T13:29:47;8.70;;;3.50;;
34144;SDS011;69555;53.014;8.886;2023-07-28T13:32:22;4.30;;;3.20;;
34144;SDS011;69555;53.014;8.886;2023-07-28T13:34:50;6.03;;;3.22;;
34144;SDS011;69555;53.014;8.886;2023-07-28T13:37:19;6.57;;;4.00;;
34144;SDS011;69555;53.014;8.886;2023-07-28T13:39:46;8.75;;;3.97;;
34144;SDS011;69555;53.014;8.886;2023-07-28T13:42:12;11.23;;;4.10;;
34144;SDS011;69555;53.014;8.886;2023-07-28T13:44:42;8.97;;;3.97;;
34144;SDS011;69555;53.014;8.886;2023-07-28T13:47:09;4.35;;;2.80;;
34144;SDS011;69555;53.014;8.886;2023-07-28T13:49:36;3.92;;;2.60;;
34144;SDS011;69555;53.014;8.886;2023-07-28T13:52:04;3.45;;;2.70;;
34144;SDS011;69555;53.014;8.886;2023-07-28T13:54:32;4.93;;;2.55;;
34144;SDS011;69555;53.014;8.886;2023-07-28T13:56:58;5.85;;;3.15;;
34144;SDS011;69555;53.014;8.886;2023-07-28T13:59:25;5.65;;;2.53;;
34144;SDS011;69555;53.014;8.886;2023-07-28T14:01:51;5.68;;;3.03;;
34144;SDS011;69555;53.014;8.886;2023-07-28T14:04:18;6.63;;;2.22;;
34144;SDS011;69555;53.014;8.886;2023-07-28T14:06:45;3.65;;;3.20;;
34144;SDS011;69555;53.014;8.886;2023-07-28T14:09:11;3.88;;;2.38;;
34144;SDS011;69555;53.014;8.886;2023-07-28T14:11:39;3.80;;;2.22;;
34144;SDS011;69555;53.014;8.886;2023-07-28T14:14:06;5.00;;;2.40;;
34144;SDS011;69555;53.014;8.886;2023-07-28T14:16:32;3.63;;;2.70;;
34144;SDS011;69555;53.014;8.886;2023-07-28T14:18:59;3.08;;;2.83;;
34144;SDS011;69555;53.014;8.886;2023-07-28T14:21:26;2.72;;;2.47;;
34144;SDS011;69555;53.014;8.886;2023-07-28T14:23:52;3.63;;;2.97;;
34144;SDS011;69555;53.014;8.886;2023-07-28T14:26:19;4.38;;;2.60;;
34144;SDS011;69555;53.014;8.886;2023-07-28T14:28:46;6.05;;;3.08;;
34144;SDS011;69555;53.014;8.886;2023-07-28T14:31:12;3.08;;;2.53;;
34144;SDS011;69555;53.014;8.886;2023-07-28T14:33:39;3.58;;;2.38;;
34144;SDS011;69555;53.014;8.886;2023-07-28T14:36:06;4.97;;;3.00;;
34144;SDS011;69555;53.014;8.886;2023-07-28T14:38:32;6.07;;;2.67;;
34144;SDS011;69555;53.014;8.886;2023-07-28T14:40:59;2.65;;;2.42;;
34144;SDS011;69555;53.014;8.886;2023-07-28T14:43:24;3.50;;;2.70;;
34144;SDS011;69555;53.014;8.886;2023-07-28T14:45:51;5.50;;;3.35;;
34144;SDS011;69555;53.014;8.886;2023-07-28T14:48:18;9.95;;;3.22;;
34144;SDS011;69555;53.014;8.886;2023-07-28T14:50:45;3.47;;;3.17;;